sensor_id;sensor_type;location;lat;lon;timestamp;pressure;altitude;pressure_sealevel;temperature;humidity
13041;BME280;6587;42.728;23.288;2022-11-13T00:02:31;96496.72;;;10.33;100.00
13041;BME280;6587;42.728;23.288;2022-11-13T00:05:18;96495.13;;;10.36;100.00
13041;BME280;6587;42.728;23.288;2022-11-13T00:08:03;96491.81;;;10.38;100.00
13041;BME280;6587;42.728;23.288;2022-11-13T00:11:11;96490.97;;;10.37;100.00
13041;BME280;6587;42.728;23.288;2022-11-13T00:13:58;96499.31;;;10.36;100.00
13041;BME280;6587;42.728;23.288;2022-11-13T00:16:53;96478.06;;;10.23;100.00
13041;BME280;6587;42.728;23.288;2022-11-13T00:19:53;96487.47;;;10.30;100.00
13041;BME280;6587;42.728;23.288;2022-11-13T00:22:41;96493.41;;;10.34;100.00
13041;BME280;6587;42.728;23.288;2022-11-13T00:25:29;96490.88;;;10.32;100.00
13041;BME280;6587;42.728;23.288;2022-11-13T00:28:15;96490.03;;;10.32;100.00
13041;BME280;6587;42.728;23.288;2022-11-13T00:31:01;96489.19;;;10.33;100.00
13041;BME280;6587;42.728;23.288;2022-11-13T00:33:47;96470.72;;;10.29;100.00
13041;BME280;6587;42.728;23.288;2022-11-13T00:36:32;96479.09;;;10.30;100.00
13041;BME280;6587;42.728;23.288;2022-11-13T00:39:20;96487.38;;;10.26;100.00
13041;BME280;6587;42.728;23.288;2022-11-13T00:42:05;96490.72;;;10.26;100.00
13041;BME280;6587;42.728;23.288;2022-11-13T00:44:50;96487.53;;;10.32;100.00
13041;BME280;6587;42.728;23.288;2022-11-13T00:47:36;96489.94;;;10.29;100.00
13041;BME280;6587;42.728;23.288;2022-11-13T00:50:21;96490.81;;;10.31;100.00
13041;BME280;6587;42.728;23.288;2022-11-13T00:53:07;96482.44;;;10.30;100.00
13041;BME280;6587;42.728;23.288;2022-11-13T00:55:53;96486.94;;;10.44;100.00
13041;BME280;6587;42.728;23.288;2022-11-13T00:58:39;96497.06;;;10.48;100.00
13041;BME280;6587;42.728;23.288;2022-11-13T01:01:29;96481.94;;;10.45;100.00
13041;BME280;6587;42.728;23.288;2022-11-13T01:04:15;96482.06;;;10.50;100.00
13041;BME280;6587;42.728;23.288;2022-11-13T01:07:01;96476.00;;;10.42;100.00
13041;BME280;6587;42.728;23.288;2022-11-13T01:09:48;96473.72;;;10.52;100.00
13041;BME280;6587;42.728;23.288;2022-11-13T01:12:35;96473.63;;;10.48;100.00
13041;BME280;6587;42.728;23.288;2022-11-13T01:15:21;96477.56;;;10.35;100.00
13041;BME280;6587;42.728;23.288;2022-11-13T01:18:06;96480.47;;;10.53;100.00
13041;BME280;6587;42.728;23.288;2022-11-13T01:21:01;96481.41;;;10.60;100.00
13041;BME280;6587;42.728;23.288;2022-11-13T01:23:46;96482.41;;;10.67;100.00
13041;BME280;6587;42.728;23.288;2022-11-13T01:26:32;96462.09;;;10.56;100.00
13041;BME280;6587;42.728;23.288;2022-11-13T01:29:21;96473.19;;;10.66;100.00
13041;BME280;6587;42.728;23.288;2022-11-13T01:32:08;96471.44;;;10.62;100.00
13041;BME280;6587;42.728;23.288;2022-11-13T01:34:53;96467.78;;;10.47;100.00
13041;BME280;6587;42.728;23.288;2022-11-13T01:37:42;96457.06;;;10.54;100.00
13041;BME280;6587;42.728;23.288;2022-11-13T01:40:31;96456.16;;;10.51;100.00
13041;BME280;6587;42.728;23.288;2022-11-13T01:43:23;96448.56;;;10.49;100.00
13041;BME280;6587;42.728;23.288;2022-11-13T01:46:18;96453.19;;;10.31;100.00
13041;BME280;6587;42.728;23.288;2022-11-13T01:49:17;96451.88;;;10.47;100.00
13041;BME280;6587;42.728;23.288;2022-11-13T01:52:07;96445.88;;;10.39;100.00
13041;BME280;6587;42.728;23.288;2022-11-13T01:54:56;96450.88;;;10.39;100.00
13041;BME280;6587;42.728;23.288;2022-11-13T01:57:45;96433.78;;;10.24;100.00
13041;BME280;6587;42.728;23.288;2022-11-13T02:00:30;96447.72;;;10.49;100.00
13041;BME280;6587;42.728;23.288;2022-11-13T02:03:17;96435.88;;;10.42;100.00
13041;BME280;6587;42.728;23.288;2022-11-13T02:06:04;96446.06;;;10.49;100.00
13041;BME280;6587;42.728;23.288;2022-11-13T02:08:50;96450.19;;;10.46;100.00
13041;BME280;6587;42.728;23.288;2022-11-13T02:11:36;96455.22;;;10.46;100.00
13041;BME280;6587;42.728;23.288;2022-11-13T02:14:25;96451.75;;;10.41;100.00
13041;BME280;6587;42.728;23.288;2022-11-13T02:17:15;96456.00;;;10.45;100.00
13041;BME280;6587;42.728;23.288;2022-11-13T02:20:05;96435.53;;;10.26;100.00
13041;BME280;6587;42.728;23.288;2022-11-13T02:22:58;96449.41;;;10.48;100.00
13041;BME280;6587;42.728;23.288;2022-11-13T02:25:49;96449.22;;;10.41;100.00
13041;BME280;6587;42.728;23.288;2022-11-13T02:28:37;96444.88;;;10.32;100.00
13041;BME280;6587;42.728;23.288;2022-11-13T02:31:25;96424.31;;;10.12;100.00
13041;BME280;6587;42.728;23.288;2022-11-13T02:34:15;96455.69;;;10.31;100.00
13041;BME280;6587;42.728;23.288;2022-11-13T02:37:01;96452.25;;;10.26;100.00
13041;BME280;6587;42.728;23.288;2022-11-13T02:39:46;96428.66;;;10.19;100.00
13041;BME280;6587;42.728;23.288;2022-11-13T02:42:34;96443.97;;;10.30;100.00
13041;BME280;6587;42.728;23.288;2022-11-13T02:45:19;96444.16;;;10.38;100.00
13041;BME280;6587;42.728;23.288;2022-11-13T02:48:05;96437.69;;;10.47;100.00
13041;BME280;6587;42.728;23.288;2022-11-13T02:50:51;96435.75;;;10.35;100.00
13041;BME280;6587;42.728;23.288;2022-11-13T02:53:37;96438.97;;;10.30;100.00
13041;BME280;6587;42.728;23.288;2022-11-13T02:56:22;96442.97;;;10.23;100.00
13041;BME280;6587;42.728;23.288;2022-11-13T02:59:08;96446.47;;;10.28;100.00
13041;BME280;6587;42.728;23.288;2022-11-13T03:01:54;96446.47;;;10.28;100.00
13041;BME280;6587;42.728;23.288;2022-11-13T03:04:39;96451.50;;;10.30;100.00
13041;BME280;6587;42.728;23.288;2022-11-13T03:07:25;96446.59;;;10.34;100.00
13041;BME280;6587;42.728;23.288;2022-11-13T03:10:10;96450.81;;;10.35;100.00
13041;BME280;6587;42.728;23.288;2022-11-13T03:12:57;96446.88;;;10.48;100.00
13041;BME280;6587;42.728;23.288;2022-11-13T03:15:43;96452.88;;;10.55;100.00
13041;BME280;6587;42.728;23.288;2022-11-13T03:18:30;96434.41;;;10.51;100.00
13041;BME280;6587;42.728;23.288;2022-11-13T03:21:16;96452.88;;;10.55;100.00
13041;BME280;6587;42.728;23.288;2022-11-13T03:24:01;96461.31;;;10.58;100.00
13041;BME280;6587;42.728;23.288;2022-11-13T03:26:47;96454.50;;;10.53;100.00
13041;BME280;6587;42.728;23.288;2022-11-13T03:29:33;96455.47;;;10.59;100.00
13041;BME280;6587;42.728;23.288;2022-11-13T03:32:19;96436.78;;;10.45;100.00
13041;BME280;6587;42.728;23.288;2022-11-13T03:35:05;96464.38;;;10.45;100.00
13041;BME280;6587;42.728;23.288;2022-11-13T03:37:52;96459.28;;;10.41;100.00
13041;BME280;6587;42.728;23.288;2022-11-13T03:40:37;96462.75;;;10.47;100.00
13041;BME280;6587;42.728;23.288;2022-11-13T03:43:22;96466.19;;;10.52;100.00
13041;BME280;6587;42.728;23.288;2022-11-13T03:46:08;96463.00;;;10.58;100.00
13041;BME280;6587;42.728;23.288;2022-11-13T03:48:55;96463.63;;;10.49;100.00
13041;BME280;6587;42.728;23.288;2022-11-13T03:51:40;96461.25;;;10.54;100.00
13041;BME280;6587;42.728;23.288;2022-11-13T03:54:25;96458.91;;;10.63;100.00
13041;BME280;6587;42.728;23.288;2022-11-13T03:57:11;96457.38;;;10.70;100.00
13041;BME280;6587;42.728;23.288;2022-11-13T03:59:56;96464.13;;;10.72;100.00
13041;BME280;6587;42.728;23.288;2022-11-13T04:02:42;96461.63;;;10.74;100.00
13041;BME280;6587;42.728;23.288;2022-11-13T04:05:29;96461.72;;;10.77;100.00
13041;BME280;6587;42.728;23.288;2022-11-13T04:08:15;96457.44;;;10.73;100.00
13041;BME280;6587;42.728;23.288;2022-11-13T04:11:05;96460.25;;;10.87;100.00
13041;BME280;6587;42.728;23.288;2022-11-13T04:13:51;96454.94;;;10.74;100.00
13041;BME280;6587;42.728;23.288;2022-11-13T04:16:37;96460.03;;;10.77;100.00
13041;BME280;6587;42.728;23.288;2022-11-13T04:19:23;96452.44;;;10.74;100.00
13041;BME280;6587;42.728;23.288;2022-11-13T04:22:09;96454.94;;;10.73;100.00
13041;BME280;6587;42.728;23.288;2022-11-13T04:24:55;96453.34;;;10.76;100.00
13041;BME280;6587;42.728;23.288;2022-11-13T04:27:40;96449.28;;;10.83;100.00
13041;BME280;6587;42.728;23.288;2022-11-13T04:30:26;96446.66;;;10.77;100.00
13041;BME280;6587;42.728;23.288;2022-11-13T04:33:11;96440.03;;;10.80;100.00
13041;BME280;6587;42.728;23.288;2022-11-13T04:35:57;96397.44;;;10.43;100.00
13041;BME280;6587;42.728;23.288;2022-11-13T04:38:44;96450.19;;;10.87;100.00
13041;BME280;6587;42.728;23.288;2022-11-13T04:41:29;96458.69;;;10.93;100.00
13041;BME280;6587;42.728;23.288;2022-11-13T04:44:33;96445.72;;;10.72;100.00
13041;BME280;6587;42.728;23.288;2022-11-13T04:47:18;96460.94;;;10.81;100.00
13041;BME280;6587;42.728;23.288;2022-11-13T04:50:05;96456.22;;;10.96;100.00
13041;BME280;6587;42.728;23.288;2022-11-13T04:52:51;96455.31;;;10.91;100.00
13041;BME280;6587;42.728;23.288;2022-11-13T04:55:38;96446.88;;;10.89;100.00
13041;BME280;6587;42.728;23.288;2022-11-13T04:58:23;96462.00;;;10.92;100.00
13041;BME280;6587;42.728;23.288;2022-11-13T05:01:09;96458.59;;;10.89;100.00
13041;BME280;6587;42.728;23.288;2022-11-13T05:03:54;96465.47;;;10.97;100.00
13041;BME280;6587;42.728;23.288;2022-11-13T05:06:40;96468.69;;;10.90;100.00
13041;BME280;6587;42.728;23.288;2022-11-13T05:09:26;96460.41;;;10.96;100.00
13041;BME280;6587;42.728;23.288;2022-11-13T05:12:12;96466.53;;;11.10;100.00
13041;BME280;6587;42.728;23.288;2022-11-13T05:14:58;96460.47;;;10.97;100.00
13041;BME280;6587;42.728;23.288;2022-11-13T05:17:43;96454.41;;;10.89;100.00
13041;BME280;6587;42.728;23.288;2022-11-13T05:20:32;96435.00;;;10.79;100.00
13041;BME280;6587;42.728;23.288;2022-11-13T05:23:17;96449.28;;;10.83;100.00
13041;BME280;6587;42.728;23.288;2022-11-13T05:26:05;96444.13;;;10.75;100.00
13041;BME280;6587;42.728;23.288;2022-11-13T05:28:52;96459.56;;;10.95;100.00
13041;BME280;6587;42.728;23.288;2022-11-13T05:31:37;96459.50;;;10.92;100.00
13041;BME280;6587;42.728;23.288;2022-11-13T05:34:23;96466.31;;;10.98;100.00
13041;BME280;6587;42.728;23.288;2022-11-13T05:37:08;96471.41;;;11.01;100.00
13041;BME280;6587;42.728;23.288;2022-11-13T05:39:53;96465.75;;;11.11;100.00
13041;BME280;6587;42.728;23.288;2022-11-13T05:42:38;96477.41;;;11.07;100.00
13041;BME280;6587;42.728;23.288;2022-11-13T05:45:25;96482.59;;;11.17;100.00
13041;BME280;6587;42.728;23.288;2022-11-13T05:48:11;96481.44;;;11.01;100.00
13041;BME280;6587;42.728;23.288;2022-11-13T05:51:01;96476.44;;;11.01;100.00
13041;BME280;6587;42.728;23.288;2022-11-13T05:53:47;96482.91;;;10.91;100.00
13041;BME280;6587;42.728;23.288;2022-11-13T05:56:35;96491.44;;;10.98;100.00
13041;BME280;6587;42.728;23.288;2022-11-13T05:59:20;96478.72;;;10.90;100.00
13041;BME280;6587;42.728;23.288;2022-11-13T06:02:07;96481.38;;;10.98;100.00
13041;BME280;6587;42.728;23.288;2022-11-13T06:04:52;96489.69;;;10.94;100.00
13041;BME280;6587;42.728;23.288;2022-11-13T06:07:38;96488.84;;;10.95;100.00
13041;BME280;6587;42.728;23.288;2022-11-13T06:10:23;96496.50;;;11.01;100.00
13041;BME280;6587;42.728;23.288;2022-11-13T06:13:09;96497.50;;;11.09;100.00
13041;BME280;6587;42.728;23.288;2022-11-13T06:15:59;96488.44;;;11.17;100.00
13041;BME280;6587;42.728;23.288;2022-11-13T06:18:47;96497.78;;;11.23;100.00
13041;BME280;6587;42.728;23.288;2022-11-13T06:21:34;96494.47;;;11.25;100.00
13041;BME280;6587;42.728;23.288;2022-11-13T06:24:20;96495.28;;;11.24;100.00
13041;BME280;6587;42.728;23.288;2022-11-13T06:27:05;96491.09;;;11.25;100.00
13041;BME280;6587;42.728;23.288;2022-11-13T06:29:51;96496.97;;;11.24;100.00
13041;BME280;6587;42.728;23.288;2022-11-13T06:32:36;96501.28;;;11.31;100.00
13041;BME280;6587;42.728;23.288;2022-11-13T06:35:23;96499.50;;;11.25;100.00
13041;BME280;6587;42.728;23.288;2022-11-13T06:38:08;96504.41;;;11.19;100.00
13041;BME280;6587;42.728;23.288;2022-11-13T06:40:55;96500.59;;;11.38;100.00
13041;BME280;6587;42.728;23.288;2022-11-13T06:43:41;96501.41;;;11.39;100.00
13041;BME280;6587;42.728;23.288;2022-11-13T06:46:27;96495.50;;;11.35;100.00
13041;BME280;6587;42.728;23.288;2022-11-13T06:49:12;96492.69;;;11.20;100.00
13041;BME280;6587;42.728;23.288;2022-11-13T06:52:03;96497.81;;;11.24;100.00
13041;BME280;6587;42.728;23.288;2022-11-13T06:54:48;96500.44;;;11.30;100.00
13041;BME280;6587;42.728;23.288;2022-11-13T06:57:33;96501.41;;;11.39;100.00
13041;BME280;6587;42.728;23.288;2022-11-13T07:00:19;96502.09;;;11.30;100.00
13041;BME280;6587;42.728;23.288;2022-11-13T07:03:04;96492.13;;;11.35;100.00
13041;BME280;6587;42.728;23.288;2022-11-13T07:05:49;96488.72;;;11.29;100.00
13041;BME280;6587;42.728;23.288;2022-11-13T07:08:36;96493.63;;;11.25;100.00
13041;BME280;6587;42.728;23.288;2022-11-13T07:11:22;96501.34;;;11.34;100.00
13041;BME280;6587;42.728;23.288;2022-11-13T07:14:09;96514.19;;;11.49;100.00
13041;BME280;6587;42.728;23.288;2022-11-13T07:16:55;96497.63;;;11.61;100.00
13041;BME280;6587;42.728;23.288;2022-11-13T07:19:40;96499.38;;;11.63;100.00
13041;BME280;6587;42.728;23.288;2022-11-13T07:22:27;96502.13;;;11.78;100.00
13041;BME280;6587;42.728;23.288;2022-11-13T07:25:14;96512.28;;;11.83;100.00
13041;BME280;6587;42.728;23.288;2022-11-13T07:28:00;96507.94;;;11.74;100.00
13041;BME280;6587;42.728;23.288;2022-11-13T07:30:45;96494.53;;;11.75;100.00
13041;BME280;6587;42.728;23.288;2022-11-13T07:33:31;96491.81;;;11.63;100.00
13041;BME280;6587;42.728;23.288;2022-11-13T07:36:17;96500.28;;;11.68;100.00
13041;BME280;6587;42.728;23.288;2022-11-13T07:39:02;96493.09;;;11.87;100.00
13041;BME280;6587;42.728;23.288;2022-11-13T07:41:49;96497.72;;;11.65;100.00
13041;BME280;6587;42.728;23.288;2022-11-13T07:44:34;96498.59;;;11.66;100.00
13041;BME280;6587;42.728;23.288;2022-11-13T07:47:20;96497.91;;;11.76;100.00
13041;BME280;6587;42.728;23.288;2022-11-13T07:50:06;96506.50;;;11.87;100.00
13041;BME280;6587;42.728;23.288;2022-11-13T07:52:55;96492.09;;;11.80;100.00
13041;BME280;6587;42.728;23.288;2022-11-13T07:55:41;96504.72;;;11.81;100.00
13041;BME280;6587;42.728;23.288;2022-11-13T07:58:28;96505.78;;;11.94;100.00
13041;BME280;6587;42.728;23.288;2022-11-13T08:01:13;96501.63;;;11.95;100.00
13041;BME280;6587;42.728;23.288;2022-11-13T08:03:59;96503.25;;;11.94;100.00
13041;BME280;6587;42.728;23.288;2022-11-13T08:06:44;96500.03;;;12.01;100.00
13041;BME280;6587;42.728;23.288;2022-11-13T08:09:30;96485.63;;;11.91;100.00
13041;BME280;6587;42.728;23.288;2022-11-13T08:12:15;96500.00;;;11.98;100.00
13041;BME280;6587;42.728;23.288;2022-11-13T08:15:03;96499.97;;;11.97;100.00
13041;BME280;6587;42.728;23.288;2022-11-13T08:17:52;96493.44;;;12.07;100.00
13041;BME280;6587;42.728;23.288;2022-11-13T08:20:38;96500.75;;;11.93;100.00
13041;BME280;6587;42.728;23.288;2022-11-13T08:23:23;96496.91;;;12.15;100.00
13041;BME280;6587;42.728;23.288;2022-11-13T08:26:09;96485.09;;;12.11;100.00
13041;BME280;6587;42.728;23.288;2022-11-13T08:28:55;96496.16;;;12.20;100.00
13041;BME280;6587;42.728;23.288;2022-11-13T08:31:41;96494.44;;;12.19;100.00
13041;BME280;6587;42.728;23.288;2022-11-13T08:34:27;96501.03;;;12.13;100.00
13041;BME280;6587;42.728;23.288;2022-11-13T08:37:13;96503.81;;;12.28;100.00
13041;BME280;6587;42.728;23.288;2022-11-13T08:39:59;96506.44;;;12.36;100.00
13041;BME280;6587;42.728;23.288;2022-11-13T08:42:44;96498.69;;;12.22;100.00
13041;BME280;6587;42.728;23.288;2022-11-13T08:45:30;96498.47;;;12.08;100.00
13041;BME280;6587;42.728;23.288;2022-11-13T08:48:16;96507.75;;;12.11;100.00
13041;BME280;6587;42.728;23.288;2022-11-13T08:51:02;96515.28;;;12.12;100.00
13041;BME280;6587;42.728;23.288;2022-11-13T08:53:48;96514.22;;;11.98;100.00
13041;BME280;6587;42.728;23.288;2022-11-13T08:56:33;96515.84;;;12.46;100.00
13041;BME280;6587;42.728;23.288;2022-11-13T08:59:19;96522.25;;;12.27;100.00
13041;BME280;6587;42.728;23.288;2022-11-13T09:02:06;96515.00;;;12.47;100.00
13041;BME280;6587;42.728;23.288;2022-11-13T09:04:53;96515.91;;;12.52;100.00
13041;BME280;6587;42.728;23.288;2022-11-13T09:07:38;96519.25;;;12.52;100.00
13041;BME280;6587;42.728;23.288;2022-11-13T09:10:24;96524.09;;;12.37;100.00
13041;BME280;6587;42.728;23.288;2022-11-13T09:13:10;96520.75;;;12.38;100.00
13041;BME280;6587;42.728;23.288;2022-11-13T09:15:57;96519.41;;;12.60;100.00
13041;BME280;6587;42.728;23.288;2022-11-13T09:18:42;96521.25;;;12.72;100.00
13041;BME280;6587;42.728;23.288;2022-11-13T09:21:29;96528.06;;;12.81;100.00
13041;BME280;6587;42.728;23.288;2022-11-13T09:24:15;96517.34;;;12.94;100.00
13041;BME280;6587;42.728;23.288;2022-11-13T09:27:01;96520.78;;;13.00;100.00
13041;BME280;6587;42.728;23.288;2022-11-13T09:29:46;96518.19;;;12.94;100.00
13041;BME280;6587;42.728;23.288;2022-11-13T09:32:31;96509.72;;;12.91;100.00
13041;BME280;6587;42.728;23.288;2022-11-13T09:35:17;96513.97;;;12.93;100.00
13041;BME280;6587;42.728;23.288;2022-11-13T09:38:17;96507.34;;;13.03;100.00
13041;BME280;6587;42.728;23.288;2022-11-13T09:41:05;96504.25;;;13.22;100.00
13041;BME280;6587;42.728;23.288;2022-11-13T09:43:54;96505.31;;;13.40;99.76
13041;BME280;6587;42.728;23.288;2022-11-13T09:46:43;96488.81;;;13.69;96.99
13041;BME280;6587;42.728;23.288;2022-11-13T09:49:33;96495.84;;;13.22;96.64
13041;BME280;6587;42.728;23.288;2022-11-13T09:52:25;96493.78;;;13.65;95.90
13041;BME280;6587;42.728;23.288;2022-11-13T09:55:17;96494.97;;;13.99;94.87
13041;BME280;6587;42.728;23.288;2022-11-13T09:58:06;96483.84;;;13.79;93.46
13041;BME280;6587;42.728;23.288;2022-11-13T10:00:57;96477.25;;;13.93;92.82
13041;BME280;6587;42.728;23.288;2022-11-13T10:03:46;96488.94;;;13.86;93.39
13041;BME280;6587;42.728;23.288;2022-11-13T10:06:46;96493.69;;;14.50;89.78
13041;BME280;6587;42.728;23.288;2022-11-13T10:09:47;96490.63;;;15.08;86.29
13041;BME280;6587;42.728;23.288;2022-11-13T10:12:35;96475.47;;;15.08;83.95
13041;BME280;6587;42.728;23.288;2022-11-13T10:15:20;96483.91;;;15.16;84.41
13041;BME280;6587;42.728;23.288;2022-11-13T10:18:11;96477.13;;;15.10;83.57
13041;BME280;6587;42.728;23.288;2022-11-13T10:21:08;96466.13;;;14.93;83.32
13041;BME280;6587;42.728;23.288;2022-11-13T10:23:55;96469.63;;;15.27;82.65
13041;BME280;6587;42.728;23.288;2022-11-13T10:26:41;96472.00;;;14.90;83.09
13041;BME280;6587;42.728;23.288;2022-11-13T10:29:28;96478.69;;;14.76;83.10
13041;BME280;6587;42.728;23.288;2022-11-13T10:32:19;96477.03;;;14.80;83.61
13041;BME280;6587;42.728;23.288;2022-11-13T10:35:18;96463.53;;;14.81;83.39
13041;BME280;6587;42.728;23.288;2022-11-13T10:38:13;96463.69;;;15.11;83.36
13041;BME280;6587;42.728;23.288;2022-11-13T10:41:06;96468.03;;;15.63;78.96
13041;BME280;6587;42.728;23.288;2022-11-13T10:43:54;96458.81;;;15.83;77.92
13041;BME280;6587;42.728;23.288;2022-11-13T10:46:41;96453.72;;;15.79;76.46
13041;BME280;6587;42.728;23.288;2022-11-13T10:49:27;96446.13;;;16.39;74.33
13041;BME280;6587;42.728;23.288;2022-11-13T10:52:17;96452.66;;;17.15;69.38
13041;BME280;6587;42.728;23.288;2022-11-13T10:55:10;96440.09;;;16.81;69.18
13041;BME280;6587;42.728;23.288;2022-11-13T10:57:58;96443.59;;;16.19;70.83
13041;BME280;6587;42.728;23.288;2022-11-13T11:00:45;96448.66;;;16.00;72.60
13041;BME280;6587;42.728;23.288;2022-11-13T11:03:34;96436.03;;;16.03;71.58
13041;BME280;6587;42.728;23.288;2022-11-13T11:06:19;96433.50;;;15.79;72.39
13041;BME280;6587;42.728;23.288;2022-11-13T11:09:07;96440.19;;;15.57;75.50
13041;BME280;6587;42.728;23.288;2022-11-13T11:12:07;96435.94;;;15.42;77.47
13041;BME280;6587;42.728;23.288;2022-11-13T11:15:14;96431.66;;;15.10;78.34
13041;BME280;6587;42.728;23.288;2022-11-13T11:18:06;96428.28;;;15.04;79.71
13041;BME280;6587;42.728;23.288;2022-11-13T11:21:04;96424.06;;;15.09;78.77
13041;BME280;6587;42.728;23.288;2022-11-13T11:23:55;96413.91;;;14.90;78.31
13041;BME280;6587;42.728;23.288;2022-11-13T11:26:45;96424.78;;;14.71;81.00
13041;BME280;6587;42.728;23.288;2022-11-13T11:29:38;96399.28;;;14.31;81.81
13041;BME280;6587;42.728;23.288;2022-11-13T11:32:30;96421.09;;;14.23;82.50
13041;BME280;6587;42.728;23.288;2022-11-13T11:35:20;96418.50;;;14.11;84.59
13041;BME280;6587;42.728;23.288;2022-11-13T11:38:10;96425.13;;;13.96;85.69
13041;BME280;6587;42.728;23.288;2022-11-13T11:41:05;96424.50;;;14.24;84.82
13041;BME280;6587;42.728;23.288;2022-11-13T11:43:58;96403.44;;;14.23;83.54
13041;BME280;6587;42.728;23.288;2022-11-13T11:46:45;96414.31;;;14.10;84.12
13041;BME280;6587;42.728;23.288;2022-11-13T11:49:31;96409.22;;;14.08;85.17
13041;BME280;6587;42.728;23.288;2022-11-13T11:52:32;96409.38;;;14.28;85.79
13041;BME280;6587;42.728;23.288;2022-11-13T11:55:33;96407.00;;;14.51;84.66
13041;BME280;6587;42.728;23.288;2022-11-13T11:58:35;96406.25;;;14.67;83.43
13041;BME280;6587;42.728;23.288;2022-11-13T12:01:35;96402.84;;;14.65;81.20
13041;BME280;6587;42.728;23.288;2022-11-13T12:04:43;96401.16;;;14.64;80.56
13041;BME280;6587;42.728;23.288;2022-11-13T12:07:40;96405.16;;;14.30;82.25
13041;BME280;6587;42.728;23.288;2022-11-13T12:10:37;96381.44;;;13.99;83.89
13041;BME280;6587;42.728;23.288;2022-11-13T12:13:29;96403.44;;;14.20;84.38
13041;BME280;6587;42.728;23.288;2022-11-13T12:16:19;96407.78;;;14.47;82.83
13041;BME280;6587;42.728;23.288;2022-11-13T12:19:15;96398.75;;;14.95;79.90
13041;BME280;6587;42.728;23.288;2022-11-13T12:22:13;96392.97;;;15.36;78.22
13041;BME280;6587;42.728;23.288;2022-11-13T12:28:19;96391.31;;;15.98;73.60
13041;BME280;6587;42.728;23.288;2022-11-13T12:31:13;96374.44;;;15.94;72.17
13041;BME280;6587;42.728;23.288;2022-11-13T12:34:11;96384.53;;;16.10;70.86
13041;BME280;6587;42.728;23.288;2022-11-13T12:37:09;96381.03;;;16.60;66.34
13041;BME280;6587;42.728;23.288;2022-11-13T12:39:59;96370.38;;;17.59;63.95
13041;BME280;6587;42.728;23.288;2022-11-13T12:42:49;96379.94;;;19.03;60.06
13041;BME280;6587;42.728;23.288;2022-11-13T12:45:49;96362.34;;;20.90;52.23
13041;BME280;6587;42.728;23.288;2022-11-13T12:48:36;96338.84;;;21.52;48.28
13041;BME280;6587;42.728;23.288;2022-11-13T12:51:22;96347.78;;;21.34;49.18
13041;BME280;6587;42.728;23.288;2022-11-13T12:54:09;96346.03;;;22.41;50.00
13041;BME280;6587;42.728;23.288;2022-11-13T12:57:06;96339.38;;;23.50;45.57
13041;BME280;6587;42.728;23.288;2022-11-13T12:59:53;96349.84;;;23.71;44.77
13041;BME280;6587;42.728;23.288;2022-11-13T13:02:56;96346.81;;;22.43;44.57
13041;BME280;6587;42.728;23.288;2022-11-13T13:06:01;96354.59;;;20.07;49.81
13041;BME280;6587;42.728;23.288;2022-11-13T13:09:20;96342.91;;;20.85;49.89
13041;BME280;6587;42.728;23.288;2022-11-13T13:12:16;96348.56;;;21.38;47.96
13041;BME280;6587;42.728;23.288;2022-11-13T13:15:21;96338.84;;;21.52;47.18
13041;BME280;6587;42.728;23.288;2022-11-13T13:18:12;96338.13;;;21.10;48.42
13041;BME280;6587;42.728;23.288;2022-11-13T13:21:10;96337.06;;;22.24;45.74
13041;BME280;6587;42.728;23.288;2022-11-13T13:24:06;96334.63;;;22.51;45.60
13041;BME280;6587;42.728;23.288;2022-11-13T13:26:52;96327.69;;;22.86;43.29
13041;BME280;6587;42.728;23.288;2022-11-13T13:29:39;96337.66;;;22.01;46.60
13041;BME280;6587;42.728;23.288;2022-11-13T13:32:33;96338.72;;;22.27;45.87
13041;BME280;6587;42.728;23.288;2022-11-13T13:35:26;96324.84;;;23.24;43.00
13041;BME280;6587;42.728;23.288;2022-11-13T13:38:19;96325.97;;;22.86;43.10
13041;BME280;6587;42.728;23.288;2022-11-13T13:41:15;96317.47;;;21.58;45.95
13041;BME280;6587;42.728;23.288;2022-11-13T13:44:16;96320.19;;;22.50;43.77
13041;BME280;6587;42.728;23.288;2022-11-13T13:47:10;96323.44;;;21.91;44.93
13041;BME280;6587;42.728;23.288;2022-11-13T13:49:58;96320.34;;;22.11;45.28
13041;BME280;6587;42.728;23.288;2022-11-13T13:52:45;96323.97;;;21.35;45.94
13041;BME280;6587;42.728;23.288;2022-11-13T13:55:35;96324.84;;;21.69;45.04
13041;BME280;6587;42.728;23.288;2022-11-13T13:58:25;96322.13;;;21.41;45.37
13041;BME280;6587;42.728;23.288;2022-11-13T14:01:14;96323.25;;;21.65;45.40
13041;BME280;6587;42.728;23.288;2022-11-13T14:04:13;96324.06;;;20.92;46.29
13041;BME280;6587;42.728;23.288;2022-11-13T14:07:00;96323.28;;;21.26;45.83
13041;BME280;6587;42.728;23.288;2022-11-13T14:09:47;96328.16;;;20.98;45.99
13041;BME280;6587;42.728;23.288;2022-11-13T14:12:32;96319.53;;;20.64;46.07
13041;BME280;6587;42.728;23.288;2022-11-13T14:15:23;96323.25;;;19.51;49.34
13041;BME280;6587;42.728;23.288;2022-11-13T14:18:12;96324.84;;;18.33;52.71
13041;BME280;6587;42.728;23.288;2022-11-13T14:21:00;96321.47;;;18.31;52.64
13041;BME280;6587;42.728;23.288;2022-11-13T14:23:48;96323.59;;;17.89;54.63
13041;BME280;6587;42.728;23.288;2022-11-13T14:26:36;96323.28;;;17.25;56.35
13041;BME280;6587;42.728;23.288;2022-11-13T14:29:29;96328.63;;;16.70;59.65
13041;BME280;6587;42.728;23.288;2022-11-13T14:32:19;96323.78;;;16.20;62.80
13041;BME280;6587;42.728;23.288;2022-11-13T14:35:06;96329.75;;;15.77;67.91
13041;BME280;6587;42.728;23.288;2022-11-13T14:37:53;96326.38;;;15.48;70.36
13041;BME280;6587;42.728;23.288;2022-11-13T14:40:45;96323.84;;;15.26;72.23
13041;BME280;6587;42.728;23.288;2022-11-13T14:43:33;96320.44;;;15.09;72.67
13041;BME280;6587;42.728;23.288;2022-11-13T14:46:26;96327.09;;;14.72;74.62
13041;BME280;6587;42.728;23.288;2022-11-13T14:49:14;96325.25;;;14.34;78.23